Time;durP1;ratioP1;P1;durP2;ratioP2;P2;SDS_P1;SDS_P2;PMS_P1;PMS_P2;Temp;Humidity;BMP_temperature;BMP_pressure;BME280_temperature;BME280_humidity;BME280_pressure;Samples;Min_cycle;Max_cycle;Signal;HPM_P1;HPM_P2
2021/04/22 02:47:44;;;;;;;22.13;20.83;;;9.40;95.70;;;;;;4937234;28;87707;-86
2021/04/22 02:50:13;;;;;;;22.23;20.90;;;9.50;95.60;;;;;;4959165;28;89678;-86
2021/04/22 02:52:39;;;;;;;22.20;20.73;;;9.50;95.40;;;;;;4966991;28;87199;-86
2021/04/22 02:55:06;;;;;;;22.35;20.85;;;9.60;95.20;;;;;;4949503;28;86783;-86
2021/04/22 02:57:32;;;;;;;22.90;21.30;;;9.60;95.10;;;;;;4927062;28;86831;-87
2021/04/22 02:59:58;;;;;;;18.02;16.63;;;9.70;95.50;;;;;;4943101;28;90865;-86
2021/04/22 03:02:24;;;;;;;15.95;14.70;;;9.70;95.30;;;;;;4955228;28;86916;-86
2021/04/22 03:04:50;;;;;;;19.58;17.98;;;9.70;95.20;;;;;;4966321;28;86850;-86
2021/04/22 03:07:16;;;;;;;19.35;17.92;;;9.70;95.80;;;;;;4928393;28;85835;-86
2021/04/22 03:09:41;;;;;;;17.73;16.23;;;9.60;96.30;;;;;;4926423;28;90422;-86
2021/04/22 03:12:08;;;;;;;16.67;15.18;;;9.60;96.00;;;;;;4935635;28;87521;-87
2021/04/22 03:14:34;;;;;;;14.40;13.20;;;9.60;95.70;;;;;;4946553;28;87504;-86
2021/04/22 03:17:01;;;;;;;16.85;15.38;;;9.70;96.30;;;;;;4955171;28;87115;-87
2021/04/22 03:19:27;;;;;;;16.23;15.00;;;9.70;96.10;;;;;;4953713;28;87615;-86
2021/04/22 03:21:52;;;;;;;16.23;15.02;;;9.60;96.90;;;;;;4934797;28;86980;-86
2021/04/22 03:24:18;;;;;;;17.27;15.98;;;9.60;96.60;;;;;;4946877;28;86858;-86
2021/04/22 03:26:44;;;;;;;16.67;15.57;;;9.60;96.80;;;;;;4945408;28;86954;-86
2021/04/22 03:29:09;;;;;;;16.13;14.82;;;9.50;96.70;;;;;;4945357;28;87884;-85
2021/04/22 03:31:38;;;;;;;15.02;13.93;;;9.40;96.70;;;;;;4966540;28;87486;-86
2021/04/22 03:34:04;;;;;;;14.80;13.70;;;9.40;97.20;;;;;;4948180;28;87041;-86
2021/04/22 03:36:30;;;;;;;13.75;12.57;;;9.40;97.00;;;;;;4946442;28;86930;-86
2021/04/22 03:38:56;;;;;;;14.57;13.48;;;9.40;97.00;;;;;;4946475;28;87911;-86
2021/04/22 03:41:22;;;;;;;14.38;13.20;;;9.40;96.80;;;;;;4953945;28;88857;-86
2021/04/22 03:43:49;;;;;;;12.90;11.90;;;9.40;96.70;;;;;;4957939;28;86341;-87
2021/04/22 03:46:14;;;;;;;15.27;13.93;;;9.40;96.70;;;;;;4936963;28;86875;-86
2021/04/22 03:48:40;;;;;;;13.68;12.55;;;9.40;96.50;;;;;;4928567;28;87307;-86
2021/04/22 03:51:06;;;;;;;14.23;13.10;;;9.40;96.50;;;;;;4946011;28;86898;-86
2021/04/22 03:53:32;;;;;;;13.30;12.30;;;9.30;96.30;;;;;;4934633;28;86994;-86
2021/04/22 03:55:57;;;;;;;12.85;11.68;;;9.30;96.50;;;;;;4926745;28;86210;-86
2021/04/22 03:58:23;;;;;;;13.32;12.18;;;9.30;96.30;;;;;;4926239;28;88791;-86
2021/04/22 04:00:49;;;;;;;11.95;10.93;;;9.30;96.60;;;;;;4909861;28;88434;-86
2021/04/22 04:03:14;;;;;;;12.85;11.77;;;9.30;96.40;;;;;;4909155;28;90410;-86
2021/04/22 04:05:40;;;;;;;14.18;13.07;;;9.20;96.60;;;;;;4922347;28;86955;-89
2021/04/22 04:08:07;;;;;;;19.20;17.88;;;;;;;;;;4915687;28;87945;-86
2021/04/22 04:10:32;;;;;;;19.45;18.15;;;9.00;97.30;;;;;;4922323;28;87382;-87
2021/04/22 04:12:58;;;;;;;25.90;24.08;;;9.00;98.40;;;;;;4919876;28;87167;-86
2021/04/22 04:15:24;;;;;;;23.65;21.88;;;8.80;98.90;;;;;;4917225;28;87138;-86
2021/04/22 04:17:50;;;;;;;25.52;23.77;;;8.70;98.70;;;;;;4926964;28;86804;-87
2021/04/22 04:20:16;;;;;;;21.20;19.80;;;8.50;99.10;;;;;;4918345;28;88106;-87
2021/04/22 04:22:42;;;;;;;18.17;16.67;;;8.40;99.20;;;;;;4921944;28;86841;-87
2021/04/22 04:25:09;;;;;;;17.50;16.23;;;8.30;99.50;;;;;;4913072;28;87063;-87
2021/04/22 04:30:58;;;;;;;18.83;17.52;;;;;;;;;;4938201;28;86912;-89
2021/04/22 04:33:24;;;;;;;18.45;17.17;;;8.10;99.30;;;;;;4944945;28;87033;-89
2021/04/22 04:35:50;;;;;;;18.65;17.15;;;8.10;99.30;;;;;;4940938;28;86876;-87
2021/04/22 04:38:16;;;;;;;27.33;25.65;;;8.10;99.40;;;;;;4933400;28;89238;-88
2021/04/22 04:40:42;;;;;;;24.35;22.85;;;;;;;;;;4924813;28;89347;-89
2021/04/22 04:43:09;;;;;;;28.90;27.08;;;8.00;99.20;;;;;;4943563;28;86688;-88
2021/04/22 04:45:34;;;;;;;27.50;25.83;;;8.00;99.90;;;;;;4942051;28;85583;-87
2021/04/22 04:48:00;;;;;;;31.48;29.52;;;7.90;99.90;;;;;;4930195;28;87728;-89
2021/04/22 04:50:26;;;;;;;30.58;28.88;;;8.00;99.90;;;;;;4927975;28;88492;-87
2021/04/22 04:53:09;;;;;;;30.02;28.10;;;8.00;99.90;;;;;;4927291;28;87966;-87
2021/04/22 04:55:35;;;;;;;26.50;24.40;;;8.00;99.80;;;;;;4926672;28;87321;-88
2021/04/22 04:58:00;;;;;;;23.13;21.63;;;8.10;99.90;;;;;;4927417;28;86865;-89
2021/04/22 05:00:26;;;;;;;21.92;20.33;;;8.10;99.90;;;;;;4925999;28;88525;-88
2021/04/22 05:02:52;;;;;;;24.80;23.20;;;8.10;99.90;;;;;;4928153;28;86841;-88
2021/04/22 05:05:18;;;;;;;28.05;25.80;;;8.20;99.90;;;;;;4927827;28;86781;-87
2021/04/22 05:07:44;;;;;;;29.25;27.13;;;8.20;99.90;;;;;;4927891;28;86871;-87
2021/04/22 05:10:10;;;;;;;30.80;28.77;;;8.30;99.90;;;;;;4925516;28;86778;-87
2021/04/22 05:12:36;;;;;;;30.77;28.85;;;8.30;99.90;;;;;;4925647;28;87025;-85
2021/04/22 05:15:04;;;;;;;29.73;27.90;;;8.40;99.90;;;;;;4926974;28;86682;-86
2021/04/22 05:17:29;;;;;;;30.20;28.23;;;8.40;99.90;;;;;;4920240;28;88675;-89
2021/04/22 05:19:55;;;;;;;32.33;30.27;;;8.50;99.90;;;;;;4935219;28;87676;-89
2021/04/22 05:22:21;;;;;;;29.98;27.63;;;;;;;;;;4935823;28;86723;-89
2021/04/22 05:24:48;;;;;;;29.65;27.52;;;8.70;99.80;;;;;;4932165;28;87131;-90
2021/04/22 05:27:14;;;;;;;31.02;28.90;;;;;;;;;;4930654;28;92112;-87
2021/04/22 05:29:40;;;;;;;25.90;24.13;;;;;;;;;;4923403;28;88878;-86
2021/04/22 05:32:06;;;;;;;34.83;32.67;;;9.10;99.20;;;;;;4928266;28;87064;-87
2021/04/22 05:34:32;;;;;;;42.50;40.22;;;9.30;99.00;;;;;;4924256;28;86232;-86
2021/04/22 05:36:58;;;;;;;38.80;36.42;;;9.50;98.50;;;;;;4920255;28;87608;-88
2021/04/22 05:39:24;;;;;;;24.38;22.38;;;;;;;;;;4921528;28;87169;-89
2021/04/22 05:41:58;;;;;;;19.00;17.10;;;9.90;97.50;;;;;;4924591;28;88434;-86
2021/04/22 05:44:24;;;;;;;16.95;15.35;;;10.10;98.10;;;;;;4935805;28;86214;-89
2021/04/22 05:46:50;;;;;;;17.60;16.00;;;;;;;;;;4941145;28;87382;-89
2021/04/22 05:49:16;;;;;;;17.08;15.57;;;10.40;97.00;;;;;;4941727;28;87139;-84
2021/04/22 05:51:42;;;;;;;23.13;21.38;;;;;;;;;;4935107;28;87240;-86
2021/04/22 05:54:09;;;;;;;28.63;26.67;;;10.70;96.10;;;;;;4924331;28;87121;-86
2021/04/22 05:56:35;;;;;;;33.95;31.90;;;10.80;96.10;;;;;;4930143;28;87160;-87
2021/04/22 05:59:01;;;;;;;24.85;23.15;;;10.80;96.10;;;;;;4946555;28;89514;-86
2021/04/22 06:01:27;;;;;;;41.85;39.38;;;10.80;95.80;;;;;;4941362;28;86081;-86
2021/04/22 06:03:52;;;;;;;44.65;42.10;;;10.90;95.90;;;;;;4949847;28;87247;-86
2021/04/22 06:06:18;;;;;;;45.25;42.65;;;11.00;95.60;;;;;;4924859;28;88750;-87
2021/04/22 06:08:45;;;;;;;64.25;61.13;;;11.00;96.20;;;;;;4938067;28;88099;-87
2021/04/22 06:11:11;;;;;;;89.65;85.63;;;11.10;96.80;;;;;;4940040;28;86958;-87
2021/04/22 06:13:37;;;;;;;70.72;67.22;;;11.30;97.20;;;;;;4930331;28;87048;-87
2021/04/22 06:16:02;;;;;;;65.80;62.45;;;11.40;97.90;;;;;;4934251;28;87037;-86
2021/04/22 06:18:28;;;;;;;55.78;53.00;;;11.50;97.80;;;;;;4921183;28;87581;-87
2021/04/22 06:20:54;;;;;;;43.33;40.83;;;11.60;98.00;;;;;;4921719;28;86749;-86
2021/04/22 06:23:20;;;;;;;38.83;36.63;;;11.70;97.90;;;;;;4936173;28;86222;-86
2021/04/22 06:25:46;;;;;;;34.83;32.85;;;11.90;98.20;;;;;;4937948;28;87327;-86
2021/04/22 06:28:12;;;;;;;35.92;33.92;;;11.90;97.80;;;;;;4925293;28;86895;-86
2021/04/22 06:30:38;;;;;;;47.92;45.42;;;12.10;97.70;;;;;;4932385;28;87645;-86
2021/04/22 06:33:04;;;;;;;36.95;34.75;;;12.30;97.10;;;;;;4935426;28;86834;-86
2021/04/22 06:35:30;;;;;;;29.88;27.95;;;12.40;95.60;;;;;;4943063;28;88138;-86
2021/04/22 06:37:55;;;;;;;26.98;25.35;;;12.40;94.90;;;;;;4938879;28;87025;-86
2021/04/22 06:40:23;;;;;;;32.38;30.67;;;12.50;93.20;;;;;;4927499;28;86917;-85
2021/04/22 06:42:49;;;;;;;51.65;48.97;;;12.50;91.00;;;;;;4915314;28;87026;-86
2021/04/22 06:45:16;;;;;;;45.80;43.47;;;12.80;91.50;;;;;;4932265;28;87764;-86
2021/04/22 06:47:43;;;;;;;35.00;33.00;;;13.00;91.20;;;;;;4929589;28;88187;-86
2021/04/22 06:50:13;;;;;;;35.63;33.42;;;13.40;91.30;;;;;;4925398;28;86757;-86
2021/04/22 06:52:39;;;;;;;18.25;16.85;;;13.60;91.30;;;;;;4930253;28;86995;-87
2021/04/22 06:55:09;;;;;;;21.05;19.27;;;13.80;90.60;;;;;;4930361;28;87922;-86
2021/04/22 06:57:34;;;;;;;17.80;16.65;;;14.00;90.10;;;;;;4933678;28;88932;-86
2021/04/22 07:00:00;;;;;;;23.08;21.38;;;14.20;89.40;;;;;;4929124;28;86855;-87
2021/04/22 07:02:26;;;;;;;21.05;19.42;;;14.30;89.20;;;;;;4930517;28;86843;-86
2021/04/22 07:04:52;;;;;;;20.25;18.88;;;14.40;88.90;;;;;;4929664;28;88918;-86
2021/04/22 07:07:17;;;;;;;19.75;18.30;;;14.50;88.40;;;;;;4921609;28;87000;-86
2021/04/22 07:09:43;;;;;;;16.98;15.50;;;14.60;88.10;;;;;;4929445;28;87022;-87
2021/04/22 07:12:09;;;;;;;15.60;14.27;;;14.80;85.80;;;;;;4931878;28;86297;-86
2021/04/22 07:14:37;;;;;;;22.42;21.13;;;14.90;86.00;;;;;;4928782;28;87032;-86
2021/04/22 07:17:02;;;;;;;20.38;19.17;;;15.00;87.20;;;;;;4927938;28;88471;-86
2021/04/22 07:19:28;;;;;;;29.33;27.60;;;15.20;86.40;;;;;;4921859;28;87865;-86
2021/04/22 07:21:54;;;;;;;46.20;43.92;;;15.30;85.00;;;;;;4924294;28;86866;-87
2021/04/22 07:24:20;;;;;;;50.55;48.10;;;15.50;83.70;;;;;;4931935;28;87268;-86
2021/04/22 07:26:46;;;;;;;27.27;25.50;;;15.80;82.50;;;;;;4927460;28;87829;-86
2021/04/22 07:29:12;;;;;;;30.60;28.83;;;16.10;78.50;;;;;;4928417;28;86769;-86
2021/04/22 07:31:37;;;;;;;22.90;21.40;;;16.60;77.90;;;;;;4915866;28;86942;-86
2021/04/22 07:34:03;;;;;;;29.08;27.63;;;17.40;75.40;;;;;;4922308;28;87641;-87
2021/04/22 07:36:29;;;;;;;36.17;34.15;;;18.20;69.90;;;;;;4927275;28;86418;-87
2021/04/22 07:38:55;;;;;;;28.23;26.67;;;19.30;64.50;;;;;;4928727;28;87697;-87
2021/04/22 07:41:21;;;;;;;24.65;23.25;;;20.00;59.40;;;;;;4943316;28;86934;-86
2021/04/22 07:43:47;;;;;;;32.70;30.92;;;20.30;56.60;;;;;;4928169;28;89459;-86
2021/04/22 07:46:12;;;;;;;20.25;18.75;;;20.30;55.60;;;;;;4931683;28;87028;-86
2021/04/22 07:48:38;;;;;;;16.52;15.23;;;20.10;54.90;;;;;;4927145;28;87017;-86
2021/04/22 07:51:04;;;;;;;67.03;63.88;;;19.90;54.30;;;;;;4926868;28;86851;-86
2021/04/22 07:53:30;;;;;;;75.32;71.80;;;19.90;53.80;;;;;;4927114;28;87938;-86
2021/04/22 07:55:55;;;;;;;43.67;41.63;;;21.20;53.40;;;;;;4940760;28;86861;-86
2021/04/22 07:58:22;;;;;;;31.88;30.08;;;23.10;49.80;;;;;;4926151;28;87024;-87
2021/04/22 08:00:49;;;;;;;23.02;21.73;;;24.70;48.30;;;;;;4926807;28;86308;-87
2021/04/22 08:03:17;;;;;;;49.63;47.28;;;26.10;44.80;;;;;;4920689;28;87073;-87
2021/04/22 08:05:44;;;;;;;65.85;62.85;;;27.50;42.80;;;;;;4928441;28;87079;-87
2021/04/22 08:08:12;;;;;;;74.68;71.20;;;28.70;39.60;;;;;;4927986;28;87783;-86
2021/04/22 08:10:42;;;;;;;83.88;79.95;;;29.40;37.90;;;;;;4918106;28;87288;-86
2021/04/22 08:13:10;;;;;;;85.60;81.88;;;30.10;36.70;;;;;;4918888;28;88021;-87
2021/04/22 08:15:37;;;;;;;144.02;138.25;;;30.90;35.00;;;;;;4922790;28;86890;-87
2021/04/22 08:18:04;;;;;;;80.30;76.85;;;31.00;34.50;;;;;;4928449;28;87026;-87
2021/04/22 08:20:29;;;;;;;136.65;130.93;;;30.80;34.30;;;;;;4925179;28;87112;-86
2021/04/22 08:22:58;;;;;;;117.70;112.60;;;29.90;34.30;;;;;;4920786;28;88076;-86
2021/04/22 08:25:33;;;;;;;62.25;59.38;;;28.80;35.00;;;;;;4923695;28;86336;-86
2021/04/22 08:28:00;;;;;;;55.95;53.35;;;27.70;35.50;;;;;;4923064;28;87141;-86
2021/04/22 08:30:32;;;;;;;101.70;97.07;;;26.70;36.80;;;;;;4927421;28;87039;-86
2021/04/22 08:33:00;;;;;;;107.03;101.97;;;26.10;37.00;;;;;;4928694;28;89083;-86
2021/04/22 08:35:27;;;;;;;151.52;145.13;;;26.30;37.20;;;;;;4930192;28;88325;-87
2021/04/22 08:37:53;;;;;;;158.70;152.38;;;27.50;36.00;;;;;;4926877;28;86717;-86
2021/04/22 08:40:20;;;;;;;74.32;71.18;;;29.10;34.80;;;;;;4925346;28;86916;-87
2021/04/22 08:42:46;;;;;;;38.85;36.85;;;30.90;33.40;;;;;;4917760;28;86939;-87
2021/04/22 08:45:14;;;;;;;54.97;52.47;;;32.30;32.00;;;;;;4931046;28;87482;-87
2021/04/22 08:47:42;;;;;;;51.58;49.15;;;33.40;30.40;;;;;;4918795;28;86982;-87
2021/04/22 08:50:19;;;;;;;96.80;92.68;;;34.40;30.40;;;;;;4923777;28;86633;-87
2021/04/22 08:52:45;;;;;;;59.03;56.50;;;35.40;29.40;;;;;;4905150;28;89220;-87
2021/04/22 08:55:12;;;;;;;52.92;50.50;;;36.00;28.90;;;;;;4934214;28;86976;-87
2021/04/22 08:57:38;;;;;;;35.85;34.22;;;36.80;28.30;;;;;;4928471;28;87875;-87
2021/04/22 09:00:12;;;;;;;62.90;60.20;;;37.30;27.80;;;;;;4913228;28;87102;-88
2021/04/22 09:02:37;;;;;;;67.35;64.30;;;37.50;27.10;;;;;;4929989;28;89300;-87
2021/04/22 09:05:05;;;;;;;223.05;214.38;;;38.20;27.20;;;;;;4926876;28;87388;-87
2021/04/22 09:07:30;;;;;;;62.42;59.67;;;38.60;26.80;;;;;;4927375;28;86977;-87
2021/04/22 09:09:56;;;;;;;37.30;35.60;;;38.90;26.40;;;;;;4931361;28;87002;-88
2021/04/22 09:12:22;;;;;;;26.55;25.30;;;39.20;26.50;;;;;;4929036;28;87098;-88
2021/04/22 09:15:10;;;;;;;35.92;33.97;;;39.60;26.50;;;;;;4929241;28;86238;-88
2021/04/22 09:17:38;;;;;;;66.63;63.70;;;39.20;25.40;;;;;;4926057;28;86852;-88
2021/04/22 09:20:06;;;;;;;88.55;84.90;;;39.50;26.00;;;;;;4931439;28;87040;-88
2021/04/22 09:22:34;;;;;;;86.63;83.03;;;40.00;25.40;;;;;;4936803;28;91227;-88
2021/04/22 09:25:17;;;;;;;40.05;38.28;;;40.00;25.80;;;;;;4920301;28;90883;-87
2021/04/22 09:27:44;;;;;;;50.92;48.55;;;40.10;25.30;;;;;;4927281;28;86986;-88
2021/04/22 09:30:16;;;;;;;200.27;192.25;;;40.40;25.50;;;;;;4921503;28;87560;-87
2021/04/22 09:32:42;;;;;;;66.32;63.55;;;40.60;24.90;;;;;;4916618;28;86944;-87
2021/04/22 09:35:13;;;;;;;34.13;32.53;;;40.80;25.10;;;;;;4927478;28;87022;-88
2021/04/22 09:37:42;;;;;;;27.77;26.38;;;40.80;25.30;;;;;;4924857;28;86932;-88
2021/04/22 09:40:15;;;;;;;112.47;107.80;;;41.20;24.50;;;;;;4925348;28;86319;-87
2021/04/22 09:42:41;;;;;;;114.13;109.57;;;41.50;24.40;;;;;;4925063;28;87253;-88
2021/04/22 09:45:09;;;;;;;58.63;56.17;;;41.60;24.30;;;;;;4924590;28;86707;-88
2021/04/22 09:47:35;;;;;;;45.27;43.30;;;41.70;24.40;;;;;;4924628;28;87935;-88
2021/04/22 09:50:01;;;;;;;34.72;33.22;;;42.00;24.50;;;;;;4933047;28;87018;-87
2021/04/22 09:52:38;;;;;;;35.20;33.60;;;42.20;24.30;;;;;;4927334;28;86778;-87
2021/04/22 09:55:05;;;;;;;109.28;105.00;;;42.30;23.90;;;;;;4935587;28;87631;-87
2021/04/22 09:57:34;;;;;;;117.35;112.60;;;42.10;23.60;;;;;;4926827;28;88122;-87
2021/04/22 10:00:00;;;;;;;116.10;111.47;;;41.80;24.40;;;;;;4932355;28;86450;-87
2021/04/22 10:02:27;;;;;;;130.07;124.85;;;42.10;23.80;;;;;;4912873;28;88641;-88
2021/04/22 10:04:55;;;;;;;62.75;60.15;;;42.40;23.80;;;;;;4923031;28;90122;-87
2021/04/22 10:07:28;;;;;;;33.05;31.55;;;42.70;24.20;;;;;;4923775;28;88052;-88
2021/04/22 10:09:56;;;;;;;45.30;43.28;;;42.50;23.30;;;;;;4915758;28;86839;-87
2021/04/22 10:12:28;;;;;;;155.83;149.67;;;42.20;23.90;;;;;;4926761;28;88187;-87
2021/04/22 10:14:55;;;;;;;213.82;205.27;;;42.50;23.80;;;;;;4933433;28;88695;-88
2021/04/22 10:17:29;;;;;;;105.53;101.07;;;42.40;23.80;;;;;;4922725;28;86749;-88
2021/04/22 10:20:04;;;;;;;84.15;80.57;;;42.20;23.50;;;;;;4915694;28;86921;-89
2021/04/22 10:22:56;;;;;;;86.10;82.22;;;41.80;24.00;;;;;;4925134;28;88748;-89
2021/04/22 10:25:25;;;;;;;78.43;75.03;;;41.60;23.80;;;;;;4918258;28;87017;-89
2021/04/22 10:27:52;;;;;;;74.15;70.78;;;41.90;24.50;;;;;;4923093;28;87475;-89
2021/04/22 10:30:24;;;;;;;168.32;161.48;;;42.40;23.80;;;;;;4929015;28;86206;-86
2021/04/22 10:32:51;;;;;;;138.35;132.77;;;42.40;23.70;;;;;;4924570;28;87385;-88
2021/04/22 10:35:25;;;;;;;142.23;136.43;;;42.70;23.80;;;;;;4917327;28;86951;-89
2021/04/22 10:37:54;;;;;;;135.80;130.18;;;42.60;23.40;;;;;;4924671;28;87914;-89
2021/04/22 10:40:24;;;;;;;;;;;43.30;23.50;;;;;;4934209;28;86750;-90
2021/04/22 10:42:54;;;;;;;66.57;63.72;;;43.50;23.00;;;;;;4916271;28;87719;-91
2021/04/22 10:45:20;;;;;;;57.80;55.17;;;43.70;22.90;;;;;;4920799;28;90771;-90
2021/04/22 10:47:47;;;;;;;136.15;130.35;;;43.70;23.20;;;;;;4926596;28;86835;-90
2021/04/22 10:50:25;;;;;;;192.75;185.00;;;44.00;22.80;;;;;;4929088;28;86284;-90
2021/04/22 10:52:52;;;;;;;102.90;98.60;;;44.00;22.90;;;;;;4929688;28;87626;-90
2021/04/22 10:55:33;;;;;;;219.43;210.95;;;44.50;23.30;;;;;;4931135;28;87301;-91
2021/04/22 10:58:38;;;;;;;320.75;308.83;;;44.40;23.10;;;;;;4920976;28;87169;-90
2021/04/22 11:01:11;;;;;;;279.98;269.45;;;44.50;23.50;;;;;;4918314;28;87355;-88
2021/04/22 11:03:45;;;;;;;110.93;106.47;;;44.30;23.20;;;;;;4925083;28;88716;-90
2021/04/22 11:06:20;;;;;;;100.45;96.25;;;44.40;23.50;;;;;;4924457;28;87738;-89
2021/04/22 11:08:50;;;;;;;117.97;113.15;;;43.80;23.10;;;;;;4922461;28;86821;-88
2021/04/22 11:11:24;;;;;;;142.77;137.02;;;43.40;23.60;;;;;;4913832;28;87166;-87
2021/04/22 11:14:03;;;;;;;114.28;109.45;;;43.30;23.70;;;;;;4935618;28;87589;-89
2021/04/22 11:16:38;;;;;;;90.75;86.88;;;43.20;23.80;;;;;;4940267;28;87281;-89
2021/04/22 11:19:32;;;;;;;59.78;57.20;;;43.20;23.40;;;;;;4947377;28;86941;-89
2021/04/22 11:22:00;;;;;;;60.53;57.90;;;42.90;23.60;;;;;;4931658;28;86138;-88
2021/04/22 11:24:34;;;;;;;57.00;54.28;;;42.30;24.20;;;;;;4918990;28;87716;-87
2021/04/22 11:27:13;;;;;;;63.17;60.38;;;42.20;24.30;;;;;;4923160;28;89112;-86
2021/04/22 11:29:57;;;;;;;55.78;53.30;;;41.60;23.90;;;;;;4939524;28;87948;-88
2021/04/22 11:32:25;;;;;;;57.58;55.08;;;41.50;23.60;;;;;;4929401;28;86809;-88
2021/04/22 11:35:15;;;;;;;95.87;91.97;;;42.00;23.90;;;;;;4927556;28;88566;-89
2021/04/22 11:37:49;;;;;;;100.57;96.45;;;41.80;23.20;;;;;;4930465;28;87530;-88
2021/04/22 11:40:16;;;;;;;125.68;120.63;;;41.60;23.80;;;;;;4938479;28;86580;-89
2021/04/22 11:42:46;;;;;;;89.00;85.32;;;41.00;23.80;;;;;;4923831;28;87068;-89
2021/04/22 11:45:16;;;;;;;114.90;110.13;;;41.10;23.30;;;;;;4933745;28;90715;-89
2021/04/22 11:47:57;;;;;;;82.00;78.53;;;41.20;23.10;;;;;;4927308;28;87548;-89
2021/04/22 11:50:28;;;;;;;70.13;67.13;;;40.30;23.40;;;;;;4944867;28;87629;-90
2021/04/22 11:52:59;;;;;;;141.45;135.55;;;39.80;23.60;;;;;;4929248;28;86784;-88
2021/04/22 11:55:32;;;;;;;133.15;127.63;;;40.20;23.60;;;;;;4939908;28;92651;-89
2021/04/22 11:58:08;;;;;;;112.35;107.70;;;40.00;23.80;;;;;;4928008;28;88550;-88
2021/04/22 12:01:05;;;;;;;124.22;119.15;;;40.30;23.40;;;;;;4925221;28;86928;-89
2021/04/22 12:03:34;;;;;;;74.10;70.95;;;40.80;23.30;;;;;;4923903;28;86830;-89
2021/04/22 12:06:04;;;;;;;73.90;70.82;;;40.70;23.00;;;;;;4930713;28;91517;-89
2021/04/22 12:08:32;;;;;;;92.40;88.75;;;40.60;23.20;;;;;;4929229;28;91620;-89
2021/04/22 12:11:00;;;;;;;94.45;90.47;;;40.50;22.90;;;;;;4929226;28;87060;-89
2021/04/22 12:13:34;;;;;;;80.90;77.35;;;40.30;22.80;;;;;;4940062;28;86359;-89
2021/04/22 12:16:05;;;;;;;73.50;70.32;;;40.60;23.20;;;;;;4929632;28;90283;-88
2021/04/22 12:18:40;;;;;;;74.18;70.78;;;39.70;23.80;;;;;;4927190;28;88863;-89
2021/04/22 12:21:07;;;;;;;79.35;75.95;;;38.60;24.30;;;;;;4926933;28;87934;-88
2021/04/22 12:23:36;;;;;;;71.70;68.57;;;38.40;24.20;;;;;;4921747;28;86679;-89
2021/04/22 12:26:25;;;;;;;220.35;211.75;;;38.30;24.10;;;;;;4932764;28;88660;-89
2021/04/22 12:29:11;;;;;;;196.27;188.23;;;38.20;24.50;;;;;;4934902;28;87237;-88
2021/04/22 12:32:08;;;;;;;78.32;74.63;;;37.60;25.00;;;;;;4912608;28;86994;-89
2021/04/22 12:34:35;;;;;;;57.85;55.05;;;37.10;25.70;;;;;;4899003;28;87163;-88
2021/04/22 12:37:07;;;;;;;62.28;59.30;;;36.10;25.80;;;;;;4916721;28;87745;-88
2021/04/22 12:39:48;;;;;;;218.07;209.45;;;36.10;26.00;;;;;;4926005;28;87533;-88
2021/04/22 12:42:19;;;;;;;195.05;186.88;;;36.30;26.10;;;;;;4925632;28;86861;-87
2021/04/22 12:44:57;;;;;;;70.72;67.05;;;36.30;26.70;;;;;;4924620;28;86865;-88
2021/04/22 12:47:43;;;;;;;63.05;60.05;;;36.20;27.40;;;;;;4925211;28;87975;-88
2021/04/22 12:50:26;;;;;;;82.05;78.03;;;35.80;27.00;;;;;;4907640;28;88019;-88
2021/04/22 12:53:07;;;;;;;208.05;199.65;;;35.30;27.10;;;;;;4913404;28;86954;-88
2021/04/22 12:55:35;;;;;;;257.75;247.65;;;35.30;28.00;;;;;;4943344;28;86733;-89
2021/04/22 12:58:03;;;;;;;252.93;242.88;;;35.10;28.70;;;;;;4930755;28;92401;-89
2021/04/22 13:00:37;;;;;;;245.77;236.02;;;35.20;27.40;;;;;;4927148;28;88364;-89
2021/04/22 13:03:13;;;;;;;87.40;83.13;;;35.50;27.10;;;;;;4919863;28;86878;-88
2021/04/22 13:05:45;;;;;;;80.43;76.63;;;35.10;26.60;;;;;;4926076;28;86194;-88
2021/04/22 13:08:11;;;;;;;108.03;103.00;;;35.00;26.70;;;;;;4923841;28;87309;-88
2021/04/22 13:10:40;;;;;;;122.97;117.65;;;34.70;26.90;;;;;;4938575;28;92142;-88
2021/04/22 13:13:06;;;;;;;49.67;47.35;;;34.30;26.90;;;;;;4917221;28;88631;-89
2021/04/22 13:15:33;;;;;;;114.57;109.32;;;33.90;26.20;;;;;;4925165;28;86769;-88
2021/04/22 13:18:15;;;;;;;157.10;150.68;;;33.70;26.80;;;;;;4925094;28;88769;-89
2021/04/22 13:20:45;;;;;;;143.27;137.32;;;33.90;26.40;;;;;;4923649;28;90885;-88
2021/04/22 13:23:11;;;;;;;82.88;79.22;;;34.20;26.60;;;;;;4927274;28;88509;-89
2021/04/22 13:25:38;;;;;;;44.75;42.53;;;;;;;;;;4930356;28;87332;-89
2021/04/22 13:28:24;;;;;;;48.42;46.03;;;34.50;25.70;;;;;;4931862;28;89733;-89
2021/04/22 13:30:51;;;;;;;60.08;56.95;;;34.50;26.00;;;;;;4915203;28;87487;-88
2021/04/22 13:33:22;;;;;;;59.20;56.50;;;34.40;25.70;;;;;;4925531;28;86850;-89
2021/04/22 13:35:48;;;;;;;52.75;50.20;;;;;;;;;;4925620;28;87083;-88
2021/04/22 13:38:22;;;;;;;53.33;50.72;;;34.00;25.50;;;;;;4924600;28;88042;-90
2021/04/22 13:40:49;;;;;;;53.00;50.30;;;33.50;26.50;;;;;;4927192;28;87919;-89
2021/04/22 13:43:17;;;;;;;91.82;87.25;;;33.50;26.60;;;;;;4926838;28;86935;-89
2021/04/22 13:45:44;;;;;;;117.05;111.75;;;33.10;26.80;;;;;;4933044;28;86931;-89
2021/04/22 13:48:21;;;;;;;114.25;109.13;;;32.70;27.30;;;;;;4925192;28;87339;-89
2021/04/22 13:50:47;;;;;;;60.03;56.90;;;32.90;27.40;;;;;;4905375;28;87162;-89
2021/04/22 13:53:14;;;;;;;46.50;43.80;;;32.50;27.60;;;;;;4924822;28;86831;-90
2021/04/22 13:55:43;;;;;;;41.53;39.40;;;32.30;27.90;;;;;;4921526;28;86323;-89
2021/04/22 13:58:09;;;;;;;41.22;38.92;;;32.30;27.70;;;;;;4925286;28;86938;-90
2021/04/22 14:00:35;;;;;;;75.82;72.18;;;32.40;27.30;;;;;;4933019;28;86889;-90
2021/04/22 14:03:09;;;;;;;41.13;38.75;;;32.50;27.60;;;;;;4925287;28;87696;-90
2021/04/22 14:05:38;;;;;;;55.63;53.00;;;32.50;27.10;;;;;;4927396;28;86772;-89
2021/04/22 14:08:04;;;;;;;89.95;85.90;;;32.40;26.80;;;;;;4915082;28;86859;-89
2021/04/22 14:10:37;;;;;;;32.10;30.35;;;31.90;26.40;;;;;;4924463;28;87276;-90
2021/04/22 14:13:20;;;;;;;91.32;87.03;;;31.60;26.90;;;;;;4924285;28;87045;-89
2021/04/22 14:15:46;;;;;;;95.03;90.60;;;31.60;27.80;;;;;;4925270;28;86834;-89
2021/04/22 14:18:12;;;;;;;47.55;45.05;;;31.20;27.70;;;;;;4923488;28;90750;-89
2021/04/22 14:20:38;;;;;;;58.30;55.30;;;31.10;28.40;;;;;;4927538;28;90219;-89
2021/04/22 14:23:04;;;;;;;56.80;53.97;;;30.70;27.60;;;;;;4924960;28;86236;-89
2021/04/22 14:25:30;;;;;;;49.42;46.90;;;30.60;28.00;;;;;;4922231;28;87005;-90
2021/04/22 14:27:56;;;;;;;44.10;41.75;;;30.60;28.50;;;;;;4929072;28;88260;-90
2021/04/22 14:30:22;;;;;;;30.08;28.38;;;30.60;28.30;;;;;;4929712;28;87169;-90
2021/04/22 14:32:48;;;;;;;37.97;35.78;;;;;;;;;;4929283;28;86808;-89
2021/04/22 14:35:15;;;;;;;43.90;41.63;;;30.40;27.70;;;;;;4930330;28;86816;-89
2021/04/22 14:37:40;;;;;;;31.40;29.58;;;30.30;27.80;;;;;;4928334;28;88280;-90
2021/04/22 14:40:09;;;;;;;25.42;23.70;;;30.00;28.30;;;;;;4939960;28;87044;-89
2021/04/22 14:42:35;;;;;;;25.95;24.45;;;;;;;;;;4927821;28;86547;-89
2021/04/22 14:45:01;;;;;;;29.67;27.98;;;29.70;28.10;;;;;;4930459;28;86336;-89
2021/04/22 14:47:33;;;;;;;76.85;73.20;;;29.50;28.30;;;;;;4923612;28;87665;-90
2021/04/22 14:49:59;;;;;;;78.57;74.95;;;;;;;;;;4919278;28;86903;-90
2021/04/22 14:52:25;;;;;;;79.22;75.47;;;28.70;28.80;;;;;;4929711;28;87899;-90
2021/04/22 14:54:51;;;;;;;50.28;47.60;;;28.60;29.80;;;;;;4932077;28;87002;-90
2021/04/22 14:57:18;;;;;;;42.20;39.85;;;28.50;30.50;;;;;;4926792;28;90626;-90
2021/04/22 14:59:43;;;;;;;42.63;40.13;;;28.30;30.90;;;;;;4929210;28;87464;-90
2021/04/22 15:02:12;;;;;;;59.22;56.00;;;28.20;30.50;;;;;;4927524;28;86654;-89
2021/04/22 15:04:38;;;;;;;57.33;54.20;;;28.20;31.50;;;;;;4922534;28;86910;-89
2021/04/22 15:07:04;;;;;;;54.80;51.47;;;28.10;31.50;;;;;;4928077;28;87179;-89
2021/04/22 15:09:30;;;;;;;44.35;41.78;;;27.80;31.50;;;;;;4935720;28;88367;-89
2021/04/22 15:11:56;;;;;;;51.22;48.38;;;27.40;30.70;;;;;;4922171;28;87040;-89
2021/04/22 15:14:22;;;;;;;83.80;79.65;;;;;;;;;;4932478;28;86527;-88
2021/04/22 15:16:48;;;;;;;59.83;56.30;;;;;;;;;;4932469;28;88634;-89
2021/04/22 15:19:18;;;;;;;151.60;144.63;;;25.90;33.10;;;;;;4936348;28;88863;-88
2021/04/22 15:21:43;;;;;;;266.67;255.82;;;25.10;34.50;;;;;;4946964;28;86918;-88
2021/04/22 15:24:09;;;;;;;245.50;234.18;;;24.60;35.70;;;;;;4919139;28;86856;-87
2021/04/22 15:26:35;;;;;;;154.13;146.52;;;;;;;;;;4944565;28;88691;-89
2021/04/22 15:29:03;;;;;;;78.30;74.00;;;23.70;35.80;;;;;;4927925;28;87995;-90